Terminal Aerodrome Forecast
Issued by NWS

Home | Current Version | Previous Version | Graphics & Text | Print | Product List | Glossary On
Versions: 1 2 3 4 5 6 7 8 9 10 11 12 13 14 15 16
761
FTUS43 KMPX 230520
TAFRWF
TAF
KRWF 230520Z 2306/2406 15013KT P6SM OVC060
     FM231600 16018G25KT P6SM SCT025 OVC040
     FM232000 15014KT 6SM -SHRA BR OVC018
     FM240000 15012KT 4SM -SHRA BR OVC007
     FM240400 14008KT 1SM -RA BR OVC004=

USA.gov is the U.S. government's official web portal to all federal, state and local government web resources and services.